Time;durP1;ratioP1;P1;durP2;ratioP2;P2;SDS_P1;SDS_P2;PMS_P1;PMS_P2;Temp;Humidity;BMP_temperature;BMP_pressure;BME280_temperature;BME280_humidity;BME280_pressure;Samples;Min_cycle;Max_cycle;Signal;HPM_P1;HPM_P2
2022/01/23 18:25:49;;;;;;;0.00;0.00;;;5.30;99.90;;;;;;4999782;23;20058;-69
2022/01/23 18:28:16;;;;;;;0.00;0.00;;;5.20;99.90;;;;;;5003679;28;20041;-69
2022/01/23 18:30:43;;;;;;;0.00;0.00;;;5.10;99.90;;;;;;5003191;28;20022;-70
2022/01/23 18:33:08;;;;;;;0.00;0.00;;;5.10;99.90;;;;;;4985771;28;20019;-70
2022/01/23 18:35:34;;;;;;;0.00;0.00;;;5.00;99.90;;;;;;4986688;28;20030;-73
2022/01/23 18:38:00;;;;;;;0.00;0.00;;;5.00;99.90;;;;;;5005970;28;20033;-71
2022/01/23 18:40:26;;;;;;;0.00;0.00;;;5.00;99.90;;;;;;5005843;28;20030;-71
2022/01/23 18:42:52;;;;;;;0.00;0.00;;;5.00;99.90;;;;;;4988137;28;20019;-70
2022/01/23 18:45:18;;;;;;;0.00;0.00;;;5.00;99.90;;;;;;4989208;28;20045;-72
2022/01/23 18:47:44;;;;;;;0.00;0.00;;;5.20;99.90;;;;;;4987991;28;20029;-70
2022/01/23 18:50:11;;;;;;;0.00;0.00;;;5.20;99.90;;;;;;4999612;28;20026;-70
2022/01/23 18:53:28;;;;;;;0.00;0.00;;;5.20;99.90;;;;;;4997802;28;20315;-70
2022/01/23 18:55:26;;;;;;;0.00;0.00;;;5.10;99.90;;;;;;4990775;28;20032;-72
2022/01/23 18:58:04;;;;;;;0.00;0.00;;;5.10;99.90;;;;;;4996576;28;20019;-72
2022/01/23 19:00:33;;;;;;;0.00;0.00;;;5.10;99.90;;;;;;4998296;28;20034;-72
2022/01/23 19:03:05;;;;;;;0.00;0.00;;;5.00;99.90;;;;;;4979751;28;20030;-70
2022/01/23 19:05:34;;;;;;;0.00;0.00;;;5.00;99.90;;;;;;4997796;28;20030;-71
2022/01/23 19:08:05;;;;;;;0.00;0.00;;;5.00;99.90;;;;;;4970700;28;20034;-71
2022/01/23 19:10:39;;;;;;;0.00;0.00;;;5.00;99.90;;;;;;4997980;28;20363;-71
2022/01/23 19:13:07;;;;;;;0.00;0.00;;;5.00;99.90;;;;;;4979643;28;20025;-71
2022/01/23 19:15:33;;;;;;;0.00;0.00;;;5.00;99.90;;;;;;4980221;28;20448;-72
2022/01/23 19:17:59;;;;;;;0.00;0.00;;;5.00;99.90;;;;;;4968622;28;20026;-71
2022/01/23 19:20:25;;;;;;;0.00;0.00;;;5.00;99.90;;;;;;4980270;28;20081;-71
2022/01/23 19:22:54;;;;;;;0.00;0.00;;;4.90;99.90;;;;;;4994677;28;20473;-73
2022/01/23 19:25:22;;;;;;;0.00;0.00;;;4.90;99.90;;;;;;4997612;28;20208;-70
2022/01/23 19:27:53;;;;;;;0.00;0.00;;;4.90;99.90;;;;;;4978543;28;20077;-68
2022/01/23 19:30:19;;;;;;;0.00;0.00;;;4.90;99.90;;;;;;4980232;28;20038;-68
2022/01/23 19:32:53;;;;;;;0.00;0.00;;;4.90;99.90;;;;;;4978435;28;20032;-67
2022/01/23 19:35:24;;;;;;;0.00;0.00;;;4.90;99.90;;;;;;4964472;28;20136;-70
2022/01/23 19:37:51;;;;;;;0.00;0.00;;;4.90;99.90;;;;;;4978665;28;20037;-69
2022/01/23 19:40:23;;;;;;;0.00;0.00;;;4.80;99.90;;;;;;4979930;28;20033;-67
2022/01/23 19:45:17;;;;;;;0.00;0.00;;;4.90;99.90;;;;;;4996367;28;20014;-69
2022/01/23 19:47:49;;;;;;;0.00;0.00;;;4.90;99.90;;;;;;4994076;28;20045;-70
2022/01/23 19:50:15;;;;;;;0.00;0.00;;;4.90;99.90;;;;;;4996751;28;20025;-69
2022/01/23 19:52:40;;;;;;;0.00;0.00;;;4.90;99.90;;;;;;4963609;28;20026;-68
2022/01/23 19:55:07;;;;;;;0.00;0.00;;;4.90;99.90;;;;;;4996975;28;20030;-70
2022/01/23 19:57:32;;;;;;;0.00;0.00;;;4.80;99.90;;;;;;4995835;28;20096;-70
2022/01/23 20:00:00;;;;;;;0.00;0.00;;;4.90;99.90;;;;;;4995162;28;20938;-70
2022/01/23 20:02:26;;;;;;;0.00;0.00;;;4.90;99.90;;;;;;4996480;28;20033;-71
2022/01/23 20:04:53;;;;;;;0.00;0.00;;;4.90;99.90;;;;;;4995161;28;20252;-74
2022/01/23 20:07:19;;;;;;;0.00;0.00;;;5.00;99.90;;;;;;4967053;28;20026;-69
2022/01/23 20:09:50;;;;;;;0.00;0.00;;;5.10;99.90;;;;;;4995408;28;20030;-68
2022/01/23 20:15:00;;;;;;;0.00;0.00;;;5.00;99.90;;;;;;4996456;28;20048;-71
2022/01/23 20:17:26;;;;;;;0.00;0.00;;;5.00;99.90;;;;;;4996082;28;20292;-68
2022/01/23 20:19:52;;;;;;;0.00;0.00;;;4.90;99.90;;;;;;4974824;28;20030;-69
2022/01/23 20:22:18;;;;;;;0.00;0.00;;;4.90;99.90;;;;;;4995817;28;20153;-69
2022/01/23 20:24:43;;;;;;;0.00;0.00;;;4.90;99.90;;;;;;4995303;28;20026;-68
2022/01/23 20:27:09;;;;;;;0.00;0.00;;;5.00;99.90;;;;;;4995770;28;20038;-69
2022/01/23 20:29:36;;;;;;;0.00;0.00;;;5.10;99.90;;;;;;4969266;28;20038;-70
2022/01/23 20:32:03;;;;;;;0.00;0.00;;;5.00;99.90;;;;;;4964856;28;20217;-68
2022/01/23 20:34:31;;;;;;;0.00;0.00;;;5.10;99.90;;;;;;4978866;28;20034;-71
2022/01/23 20:37:00;;;;;;;0.00;0.00;;;5.10;99.90;;;;;;4994298;28;20038;-68
2022/01/23 20:39:27;;;;;;;0.00;0.00;;;5.20;99.90;;;;;;4995629;28;20029;-70
2022/01/23 20:41:53;;;;;;;0.00;0.00;;;5.20;99.90;;;;;;4963953;28;20022;-69
2022/01/23 20:44:19;;;;;;;0.00;0.00;;;5.20;99.90;;;;;;4995550;28;20235;-69
2022/01/23 20:46:45;;;;;;;0.00;0.00;;;5.20;99.90;;;;;;4994624;28;20320;-69
2022/01/23 20:49:11;;;;;;;0.00;0.00;;;5.20;99.90;;;;;;4966546;28;20022;-70
2022/01/23 20:51:46;;;;;;;0.00;0.00;;;5.20;99.90;;;;;;4994160;28;20033;-70
2022/01/23 20:54:12;;;;;;;0.00;0.00;;;5.20;99.90;;;;;;4963487;28;20049;-71
2022/01/23 20:56:38;;;;;;;0.00;0.00;;;5.10;99.90;;;;;;4961803;28;20031;-71
2022/01/23 20:59:03;;;;;;;0.00;0.00;;;5.10;99.90;;;;;;4977032;28;20312;-71
2022/01/23 21:01:30;;;;;;;0.00;0.00;;;5.10;99.90;;;;;;4994392;28;20332;-70
2022/01/23 21:03:56;;;;;;;0.00;0.00;;;5.10;99.90;;;;;;4994368;28;20022;-69
2022/01/23 21:06:24;;;;;;;0.00;0.00;;;5.10;99.90;;;;;;4994946;28;20073;-70
2022/01/23 21:08:51;;;;;;;0.00;0.00;;;5.10;99.90;;;;;;4963174;28;20364;-70
2022/01/23 21:11:22;;;;;;;0.00;0.00;;;5.10;99.90;;;;;;4995213;28;20034;-69
2022/01/23 21:13:58;;;;;;;0.00;0.00;;;5.10;99.90;;;;;;4976956;28;20029;-69
2022/01/23 21:40:46;;;;;;;0.00;0.00;;;5.00;99.90;;;;;;4994560;28;20050;-68
2022/01/23 21:43:12;;;;;;;0.00;0.00;;;5.00;99.90;;;;;;4994486;28;20025;-68
2022/01/23 21:45:39;;;;;;;0.00;0.00;;;5.00;99.90;;;;;;4977245;28;20037;-69
2022/01/23 21:48:05;;;;;;;0.00;0.00;;;4.90;99.90;;;;;;4994529;28;20030;-68
2022/01/23 21:50:35;;;;;;;0.00;0.00;;;5.00;99.90;;;;;;4994664;28;20026;-71
2022/01/23 21:53:01;;;;;;;0.00;0.00;;;4.90;99.90;;;;;;4968285;28;20031;-71
2022/01/23 21:55:27;;;;;;;0.00;0.00;;;4.90;99.90;;;;;;4995111;28;20033;-71
2022/01/23 21:57:52;;;;;;;0.00;0.00;;;4.80;99.90;;;;;;4967611;28;20164;-70
2022/01/23 22:00:18;;;;;;;0.00;0.00;;;4.70;99.90;;;;;;4994914;28;20234;-69
2022/01/23 22:02:44;;;;;;;0.00;0.00;;;4.60;99.90;;;;;;4969838;28;20089;-68
2022/01/23 22:05:10;;;;;;;0.00;0.00;;;4.50;99.90;;;;;;4995048;28;20358;-69
2022/01/23 22:07:39;;;;;;;0.00;0.00;;;4.40;99.90;;;;;;4971647;28;20041;-71
2022/01/23 22:10:19;;;;;;;0.00;0.00;;;4.30;99.90;;;;;;4996581;28;20022;-69
2022/01/23 22:18:10;;;;;;;0.00;0.00;;;4.10;99.90;;;;;;4998102;28;20041;-70
2022/01/23 22:20:38;;;;;;;0.00;0.00;;;4.00;99.90;;;;;;4971669;28;20049;-70
2022/01/23 22:28:14;;;;;;;0.00;0.00;;;3.90;99.90;;;;;;4997510;28;20077;-69
2022/01/23 22:30:40;;;;;;;0.00;0.00;;;3.90;99.90;;;;;;4980007;28;20516;-69
2022/01/23 22:33:06;;;;;;;0.00;0.00;;;3.80;99.90;;;;;;4996912;28;20038;-68
2022/01/23 22:35:31;;;;;;;0.00;0.00;;;3.80;99.90;;;;;;4998225;28;20044;-69
2022/01/23 22:37:58;;;;;;;0.00;0.00;;;3.80;99.90;;;;;;4997233;28;20093;-68
2022/01/23 22:40:25;;;;;;;0.00;0.00;;;3.80;99.90;;;;;;4997859;28;20077;-68
2022/01/23 22:42:51;;;;;;;0.00;0.00;;;3.70;99.90;;;;;;4996789;28;20034;-69
2022/01/23 22:48:13;;;;;;;0.00;0.00;;;3.70;99.90;;;;;;4996917;28;20077;-68
2022/01/23 22:50:38;;;;;;;0.00;0.00;;;3.70;99.90;;;;;;4978981;28;20023;-68
2022/01/23 22:53:05;;;;;;;0.00;0.00;;;3.60;99.90;;;;;;4971657;28;20034;-68
2022/01/23 22:55:30;;;;;;;0.00;0.00;;;3.50;99.90;;;;;;4998158;28;20132;-69
2022/01/23 22:57:56;;;;;;;0.00;0.00;;;3.50;99.90;;;;;;4971452;28;20030;-69
2022/01/23 23:00:41;;;;;;;0.00;0.00;;;3.50;99.90;;;;;;4980159;28;20033;-69
2022/01/23 23:03:08;;;;;;;0.00;0.00;;;3.50;99.90;;;;;;4965928;28;20198;-67
2022/01/23 23:05:36;;;;;;;0.00;0.00;;;3.40;99.90;;;;;;4980150;28;20320;-68
2022/01/23 23:08:02;;;;;;;0.00;0.00;;;3.40;99.90;;;;;;4996897;28;20037;-69
2022/01/23 23:10:27;;;;;;;0.00;0.00;;;3.40;99.90;;;;;;4980363;28;20209;-68
2022/01/23 23:12:53;;;;;;;0.00;0.00;;;3.40;99.90;;;;;;4996378;28;20553;-68
2022/01/23 23:15:21;;;;;;;0.00;0.00;;;3.40;99.90;;;;;;4997899;28;20029;-67
2022/01/23 23:17:47;;;;;;;0.00;0.00;;;3.40;99.90;;;;;;4996374;28;20026;-69
2022/01/23 23:20:20;;;;;;;0.00;0.00;;;3.40;99.90;;;;;;4997100;28;20150;-68
2022/01/23 23:22:46;;;;;;;0.00;0.00;;;3.40;99.90;;;;;;4978900;28;20053;-67
2022/01/23 23:25:12;;;;;;;0.00;0.00;;;3.30;99.90;;;;;;4997308;28;20077;-67
2022/01/23 23:27:37;;;;;;;0.00;0.00;;;3.30;99.90;;;;;;4996345;28;20042;-68
2022/01/23 23:30:04;;;;;;;0.00;0.00;;;3.30;99.90;;;;;;4970682;28;20035;-68
2022/01/23 23:32:30;;;;;;;0.00;0.00;;;3.30;99.90;;;;;;4978645;28;20516;-70
2022/01/23 23:34:56;;;;;;;0.00;0.00;;;3.20;99.90;;;;;;4996306;28;20037;-69
2022/01/23 23:37:24;;;;;;;0.00;0.00;;;3.20;99.90;;;;;;4976263;28;20427;-68
2022/01/23 23:39:55;;;;;;;;;;;3.20;99.90;;;;;;4979372;28;20224;-69
2022/01/23 23:42:34;;;;;;;0.00;0.00;;;3.20;99.90;;;;;;4996563;28;19902;-67
2022/01/23 23:45:04;;;;;;;;;;;3.20;99.90;;;;;;4996665;28;20057;-68
2022/01/23 23:47:34;;;;;;;0.00;0.00;;;3.20;99.90;;;;;;4996631;28;19902;-69
2022/01/23 23:50:00;;;;;;;0.00;0.00;;;3.20;99.90;;;;;;4996395;28;20037;-68
2022/01/23 23:52:41;;;;;;;0.00;0.00;;;3.10;99.90;;;;;;4978802;28;20022;-67
2022/01/23 23:55:08;;;;;;;0.00;0.00;;;3.10;99.90;;;;;;4996843;28;20022;-66
2022/01/23 23:57:34;;;;;;;0.00;0.00;;;3.10;99.90;;;;;;4978139;28;20034;-70
